sensor_id;sensor_type;location;lat;lon;timestamp;pressure;altitude;pressure_sealevel;temperature;humidity
6435;BME280;3250;42.694;23.278;2023-09-19T00:01:08;95203.72;;;17.89;73.40
6435;BME280;3250;42.694;23.278;2023-09-19T00:03:34;95202.47;;;17.96;73.31
6435;BME280;3250;42.694;23.278;2023-09-19T00:06:03;95205.63;;;17.93;73.46
6435;BME280;3250;42.694;23.278;2023-09-19T00:08:30;95209.03;;;17.89;73.90
6435;BME280;3250;42.694;23.278;2023-09-19T00:10:56;95212.50;;;17.89;74.00
6435;BME280;3250;42.694;23.278;2023-09-19T00:13:24;95218.00;;;17.83;74.15
6435;BME280;3250;42.694;23.278;2023-09-19T00:15:50;95175.28;;;17.56;74.55
6435;BME280;3250;42.694;23.278;2023-09-19T00:18:16;95206.38;;;17.89;74.23
6435;BME280;3250;42.694;23.278;2023-09-19T00:20:42;95206.16;;;17.73;74.94
6435;BME280;3250;42.694;23.278;2023-09-19T00:23:08;95202.16;;;17.71;74.96
6435;BME280;3250;42.694;23.278;2023-09-19T00:25:37;95200.03;;;17.73;75.10
6435;BME280;3250;42.694;23.278;2023-09-19T00:28:04;95179.44;;;17.47;75.75
6435;BME280;3250;42.694;23.278;2023-09-19T00:30:32;95204.66;;;17.61;75.74
6435;BME280;3250;42.694;23.278;2023-09-19T00:32:58;95199.41;;;17.66;75.28
6435;BME280;3250;42.694;23.278;2023-09-19T00:35:23;95185.00;;;17.62;75.62
6435;BME280;3250;42.694;23.278;2023-09-19T00:37:50;95188.47;;;17.62;75.89
6435;BME280;3250;42.694;23.278;2023-09-19T00:40:15;95188.66;;;17.61;75.90
6435;BME280;3250;42.694;23.278;2023-09-19T00:42:42;95192.13;;;17.61;75.85
6435;BME280;3250;42.694;23.278;2023-09-19T00:45:09;95178.63;;;17.46;75.86
6435;BME280;3250;42.694;23.278;2023-09-19T00:47:46;95183.06;;;17.41;76.62
6435;BME280;3250;42.694;23.278;2023-09-19T00:50:16;95194.34;;;17.31;76.95
6435;BME280;3250;42.694;23.278;2023-09-19T00:52:42;95160.03;;;17.13;77.25
6435;BME280;3250;42.694;23.278;2023-09-19T00:55:10;95188.31;;;17.35;77.02
6435;BME280;3250;42.694;23.278;2023-09-19T00:57:37;95195.72;;;17.33;77.27
6435;BME280;3250;42.694;23.278;2023-09-19T01:00:07;95191.84;;;17.41;77.14
6435;BME280;3250;42.694;23.278;2023-09-19T01:02:35;95198.31;;;17.45;77.12
6435;BME280;3250;42.694;23.278;2023-09-19T01:05:01;95182.28;;;17.23;77.75
6435;BME280;3250;42.694;23.278;2023-09-19T01:07:30;95190.66;;;17.32;77.57
6435;BME280;3250;42.694;23.278;2023-09-19T01:10:01;95183.19;;;17.29;77.91
6435;BME280;3250;42.694;23.278;2023-09-19T01:12:34;95192.34;;;17.21;78.30
6435;BME280;3250;42.694;23.278;2023-09-19T01:17:48;95190.03;;;17.08;78.98
6435;BME280;3250;42.694;23.278;2023-09-19T01:23:13;95200.50;;;17.15;78.65
6435;BME280;3250;42.694;23.278;2023-09-19T01:31:24;95193.56;;;17.14;78.86
6435;BME280;3250;42.694;23.278;2023-09-19T01:33:58;95196.09;;;17.04;78.69
6435;BME280;3250;42.694;23.278;2023-09-19T01:36:26;95189.22;;;17.08;78.70
6435;BME280;3250;42.694;23.278;2023-09-19T01:38:52;95199.22;;;17.01;79.20
6435;BME280;3250;42.694;23.278;2023-09-19T01:41:26;95173.44;;;16.84;79.56
6435;BME280;3250;42.694;23.278;2023-09-19T01:43:56;95197.38;;;17.01;79.37
6435;BME280;3250;42.694;23.278;2023-09-19T01:46:25;95191.66;;;17.09;78.93
6435;BME280;3250;42.694;23.278;2023-09-19T01:51:48;95199.47;;;17.16;79.02
6435;BME280;3250;42.694;23.278;2023-09-19T01:54:20;95199.41;;;17.11;79.36
6435;BME280;3250;42.694;23.278;2023-09-19T01:57:09;95197.78;;;17.10;79.33
6435;BME280;3250;42.694;23.278;2023-09-19T01:59:45;95196.72;;;17.11;79.25
6435;BME280;3250;42.694;23.278;2023-09-19T02:02:14;95193.56;;;17.14;79.23
6435;BME280;3250;42.694;23.278;2023-09-19T02:04:43;95171.50;;;16.96;79.08
6435;BME280;3250;42.694;23.278;2023-09-19T02:07:08;95179.22;;;16.98;79.64
6435;BME280;3250;42.694;23.278;2023-09-19T02:09:34;95195.03;;;17.05;79.86
6435;BME280;3250;42.694;23.278;2023-09-19T02:12:01;95197.84;;;16.98;80.13
6435;BME280;3250;42.694;23.278;2023-09-19T02:14:27;95199.13;;;16.95;79.96
6435;BME280;3250;42.694;23.278;2023-09-19T02:16:52;95199.06;;;16.90;79.75
6435;BME280;3250;42.694;23.278;2023-09-19T02:19:19;95195.81;;;16.72;80.01
6435;BME280;3250;42.694;23.278;2023-09-19T02:21:46;95192.88;;;16.56;80.90
6435;BME280;3250;42.694;23.278;2023-09-19T02:24:13;95179.78;;;16.38;81.43
6435;BME280;3250;42.694;23.278;2023-09-19T02:26:40;95186.50;;;16.41;81.55
6435;BME280;3250;42.694;23.278;2023-09-19T02:29:05;95182.69;;;16.37;81.64
6435;BME280;3250;42.694;23.278;2023-09-19T02:31:31;95157.19;;;16.07;82.32
6435;BME280;3250;42.694;23.278;2023-09-19T02:33:56;95190.72;;;16.25;82.08
6435;BME280;3250;42.694;23.278;2023-09-19T02:36:22;95176.88;;;16.23;82.27
6435;BME280;3250;42.694;23.278;2023-09-19T02:38:49;95161.41;;;16.20;82.20
6435;BME280;3250;42.694;23.278;2023-09-19T02:41:14;95156.00;;;16.15;82.22
6435;BME280;3250;42.694;23.278;2023-09-19T02:43:40;95169.59;;;16.18;82.31
6435;BME280;3250;42.694;23.278;2023-09-19T02:46:05;95169.50;;;16.13;82.66
6435;BME280;3250;42.694;23.278;2023-09-19T02:48:31;95156.63;;;16.05;82.81
6435;BME280;3250;42.694;23.278;2023-09-19T02:50:57;95155.31;;;15.79;83.71
6435;BME280;3250;42.694;23.278;2023-09-19T02:53:23;95156.00;;;15.75;84.24
6435;BME280;3250;42.694;23.278;2023-09-19T02:55:49;95155.19;;;15.74;84.37
6435;BME280;3250;42.694;23.278;2023-09-19T02:58:15;95154.31;;;15.69;84.49
6435;BME280;3250;42.694;23.278;2023-09-19T03:00:41;95162.94;;;15.76;84.20
6435;BME280;3250;42.694;23.278;2023-09-19T03:03:08;95150.00;;;15.79;84.07
6435;BME280;3250;42.694;23.278;2023-09-19T03:05:34;95149.19;;;15.79;84.08
6435;BME280;3250;42.694;23.278;2023-09-19T03:08:00;95149.56;;;15.71;84.19
6435;BME280;3250;42.694;23.278;2023-09-19T03:10:26;95148.53;;;15.72;84.14
6435;BME280;3250;42.694;23.278;2023-09-19T03:12:53;95150.38;;;15.71;84.16
6435;BME280;3250;42.694;23.278;2023-09-19T03:15:19;95141.59;;;15.71;84.11
6435;BME280;3250;42.694;23.278;2023-09-19T03:17:45;95139.31;;;15.63;84.30
6435;BME280;3250;42.694;23.278;2023-09-19T03:20:12;95126.75;;;15.46;84.55
6435;BME280;3250;42.694;23.278;2023-09-19T03:22:39;95143.50;;;15.47;84.87
6435;BME280;3250;42.694;23.278;2023-09-19T03:25:07;95146.59;;;15.44;85.31
6435;BME280;3250;42.694;23.278;2023-09-19T03:27:36;95139.22;;;15.46;85.28
6435;BME280;3250;42.694;23.278;2023-09-19T03:30:02;95140.84;;;15.47;85.09
6435;BME280;3250;42.694;23.278;2023-09-19T03:32:33;95138.19;;;15.35;85.49
6435;BME280;3250;42.694;23.278;2023-09-19T03:34:59;95156.63;;;15.42;85.24
6435;BME280;3250;42.694;23.278;2023-09-19T03:37:25;95150.50;;;15.41;85.31
6435;BME280;3250;42.694;23.278;2023-09-19T03:39:51;95160.91;;;15.43;85.22
6435;BME280;3250;42.694;23.278;2023-09-19T03:42:16;95150.88;;;15.45;84.92
6435;BME280;3250;42.694;23.278;2023-09-19T03:44:42;95167.81;;;15.44;85.18
6435;BME280;3250;42.694;23.278;2023-09-19T03:47:08;95147.63;;;15.31;84.90
6435;BME280;3250;42.694;23.278;2023-09-19T03:49:33;95163.47;;;15.38;85.00
6435;BME280;3250;42.694;23.278;2023-09-19T03:51:59;95158.84;;;15.33;85.37
6435;BME280;3250;42.694;23.278;2023-09-19T03:54:24;95165.97;;;15.33;85.62
6435;BME280;3250;42.694;23.278;2023-09-19T03:56:50;95168.88;;;15.31;85.47
6435;BME280;3250;42.694;23.278;2023-09-19T03:59:15;95168.31;;;15.29;85.02
6435;BME280;3250;42.694;23.278;2023-09-19T04:01:41;95165.66;;;15.29;85.19
6435;BME280;3250;42.694;23.278;2023-09-19T04:04:06;95167.59;;;15.22;85.38
6435;BME280;3250;42.694;23.278;2023-09-19T04:06:35;95171.06;;;15.23;85.72
6435;BME280;3250;42.694;23.278;2023-09-19T04:09:02;95176.63;;;15.21;85.79
6435;BME280;3250;42.694;23.278;2023-09-19T04:11:29;95183.78;;;15.21;85.90
6435;BME280;3250;42.694;23.278;2023-09-19T04:13:54;95184.00;;;15.19;85.66
6435;BME280;3250;42.694;23.278;2023-09-19T04:16:20;95174.53;;;15.12;85.62
6435;BME280;3250;42.694;23.278;2023-09-19T04:18:45;95180.75;;;15.17;85.47
6435;BME280;3250;42.694;23.278;2023-09-19T04:21:10;95173.38;;;15.19;85.87
6435;BME280;3250;42.694;23.278;2023-09-19T04:23:36;95171.31;;;15.21;85.93
6435;BME280;3250;42.694;23.278;2023-09-19T04:26:01;95170.59;;;15.26;86.30
6435;BME280;3250;42.694;23.278;2023-09-19T04:28:29;95149.50;;;15.19;86.03
6435;BME280;3250;42.694;23.278;2023-09-19T04:30:54;95170.13;;;15.40;85.97
6435;BME280;3250;42.694;23.278;2023-09-19T04:33:20;95175.66;;;15.51;85.66
6435;BME280;3250;42.694;23.278;2023-09-19T04:35:49;95168.28;;;15.64;85.50
6435;BME280;3250;42.694;23.278;2023-09-19T04:38:14;95157.19;;;15.67;84.26
6435;BME280;3250;42.694;23.278;2023-09-19T04:40:40;95169.25;;;15.87;84.41
6435;BME280;3250;42.694;23.278;2023-09-19T04:43:05;95171.31;;;15.96;84.10
6435;BME280;3250;42.694;23.278;2023-09-19T04:45:31;95169.31;;;16.03;83.87
6435;BME280;3250;42.694;23.278;2023-09-19T04:47:56;95171.28;;;16.08;83.67
6435;BME280;3250;42.694;23.278;2023-09-19T04:50:22;95167.91;;;16.12;83.11
6435;BME280;3250;42.694;23.278;2023-09-19T04:52:51;95165.66;;;16.21;82.96
6435;BME280;3250;42.694;23.278;2023-09-19T04:55:18;95170.31;;;16.42;83.04
6435;BME280;3250;42.694;23.278;2023-09-19T04:57:48;95161.66;;;16.80;81.49
6435;BME280;3250;42.694;23.278;2023-09-19T05:00:15;95156.28;;;17.30;80.07
6435;BME280;3250;42.694;23.278;2023-09-19T05:02:42;95163.47;;;17.90;78.25
6435;BME280;3250;42.694;23.278;2023-09-19T05:05:08;95158.44;;;18.42;75.93
6435;BME280;3250;42.694;23.278;2023-09-19T05:07:41;95171.09;;;19.48;73.86
6435;BME280;3250;42.694;23.278;2023-09-19T05:10:08;95180.66;;;20.74;69.16
6435;BME280;3250;42.694;23.278;2023-09-19T05:12:34;95167.13;;;21.95;63.82
6435;BME280;3250;42.694;23.278;2023-09-19T05:15:04;95180.91;;;22.38;61.06
6435;BME280;3250;42.694;23.278;2023-09-19T05:17:30;95163.53;;;23.42;58.80
6435;BME280;3250;42.694;23.278;2023-09-19T05:19:56;95181.78;;;24.64;55.61
6435;BME280;3250;42.694;23.278;2023-09-19T05:22:23;95185.59;;;25.47;53.01
6435;BME280;3250;42.694;23.278;2023-09-19T05:24:50;95185.41;;;26.30;51.16
6435;BME280;3250;42.694;23.278;2023-09-19T05:27:16;95165.38;;;26.95;49.54
6435;BME280;3250;42.694;23.278;2023-09-19T05:29:45;95179.97;;;27.83;46.62
6435;BME280;3250;42.694;23.278;2023-09-19T05:32:11;95164.91;;;28.56;45.45
6435;BME280;3250;42.694;23.278;2023-09-19T05:34:37;95176.13;;;29.23;43.14
6435;BME280;3250;42.694;23.278;2023-09-19T05:37:03;95173.75;;;29.39;42.72
6435;BME280;3250;42.694;23.278;2023-09-19T05:39:28;95167.97;;;29.23;42.85
6435;BME280;3250;42.694;23.278;2023-09-19T05:41:54;95155.91;;;29.04;43.49
6435;BME280;3250;42.694;23.278;2023-09-19T05:44:20;95152.97;;;28.57;43.81
6435;BME280;3250;42.694;23.278;2023-09-19T05:46:45;95148.97;;;27.98;45.41
6435;BME280;3250;42.694;23.278;2023-09-19T05:49:13;95155.00;;;27.33;46.72
6435;BME280;3250;42.694;23.278;2023-09-19T05:51:39;95153.88;;;26.89;46.94
6435;BME280;3250;42.694;23.278;2023-09-19T05:54:04;95149.69;;;26.47;48.24
6435;BME280;3250;42.694;23.278;2023-09-19T05:56:30;95157.41;;;26.40;48.81
6435;BME280;3250;42.694;23.278;2023-09-19T05:58:55;95151.84;;;26.59;48.88
6435;BME280;3250;42.694;23.278;2023-09-19T06:01:20;95152.22;;;26.80;48.71
6435;BME280;3250;42.694;23.278;2023-09-19T06:03:46;95147.09;;;26.78;48.31
6435;BME280;3250;42.694;23.278;2023-09-19T06:06:11;95139.44;;;26.72;48.48
6435;BME280;3250;42.694;23.278;2023-09-19T06:08:37;95145.66;;;26.94;47.98
6435;BME280;3250;42.694;23.278;2023-09-19T06:11:02;95145.22;;;27.46;46.60
6435;BME280;3250;42.694;23.278;2023-09-19T06:13:30;95141.41;;;27.77;46.53
6435;BME280;3250;42.694;23.278;2023-09-19T06:15:58;95119.78;;;27.86;45.73
6435;BME280;3250;42.694;23.278;2023-09-19T06:18:25;95140.56;;;27.68;46.01
6435;BME280;3250;42.694;23.278;2023-09-19T06:20:51;95115.63;;;27.18;45.67
6435;BME280;3250;42.694;23.278;2023-09-19T06:23:20;95135.41;;;27.89;46.03
6435;BME280;3250;42.694;23.278;2023-09-19T06:25:46;95134.78;;;28.49;43.86
6435;BME280;3250;42.694;23.278;2023-09-19T06:28:11;95143.44;;;29.11;42.65
6435;BME280;3250;42.694;23.278;2023-09-19T06:30:40;95133.56;;;28.81;41.91
6435;BME280;3250;42.694;23.278;2023-09-19T06:33:06;95114.91;;;28.79;42.32
6435;BME280;3250;42.694;23.278;2023-09-19T06:35:34;95140.09;;;29.23;41.34
6435;BME280;3250;42.694;23.278;2023-09-19T06:38:04;95138.66;;;29.00;42.01
6435;BME280;3250;42.694;23.278;2023-09-19T06:40:31;95130.00;;;28.46;43.39
6435;BME280;3250;42.694;23.278;2023-09-19T06:42:56;95135.06;;;27.82;44.47
6435;BME280;3250;42.694;23.278;2023-09-19T06:45:22;95129.53;;;26.67;46.08
6435;BME280;3250;42.694;23.278;2023-09-19T06:47:49;95130.22;;;25.96;47.69
6435;BME280;3250;42.694;23.278;2023-09-19T06:50:15;95135.16;;;25.34;49.37
6435;BME280;3250;42.694;23.278;2023-09-19T06:52:45;95131.47;;;24.97;51.01
6435;BME280;3250;42.694;23.278;2023-09-19T06:55:11;95143.84;;;24.79;51.45
6435;BME280;3250;42.694;23.278;2023-09-19T06:57:39;95132.13;;;24.52;52.70
6435;BME280;3250;42.694;23.278;2023-09-19T07:00:06;95130.06;;;24.25;53.71
6435;BME280;3250;42.694;23.278;2023-09-19T07:02:41;95138.34;;;23.86;54.19
6435;BME280;3250;42.694;23.278;2023-09-19T07:05:07;95128.38;;;23.62;55.04
6435;BME280;3250;42.694;23.278;2023-09-19T07:07:32;95138.50;;;23.70;55.35
6435;BME280;3250;42.694;23.278;2023-09-19T07:10:01;95128.13;;;23.35;55.69
6435;BME280;3250;42.694;23.278;2023-09-19T07:12:26;95135.28;;;23.16;56.82
6435;BME280;3250;42.694;23.278;2023-09-19T07:14:51;95130.03;;;23.01;57.01
6435;BME280;3250;42.694;23.278;2023-09-19T07:17:17;95138.66;;;22.98;57.29
6435;BME280;3250;42.694;23.278;2023-09-19T07:19:44;95130.94;;;22.91;57.79
6435;BME280;3250;42.694;23.278;2023-09-19T07:22:10;95139.81;;;22.86;57.97
6435;BME280;3250;42.694;23.278;2023-09-19T07:24:36;95138.75;;;22.87;57.76
6435;BME280;3250;42.694;23.278;2023-09-19T07:27:02;95141.84;;;22.61;58.15
6435;BME280;3250;42.694;23.278;2023-09-19T07:29:28;95140.19;;;22.26;59.09
6435;BME280;3250;42.694;23.278;2023-09-19T07:31:53;95146.13;;;22.23;59.83
6435;BME280;3250;42.694;23.278;2023-09-19T07:34:19;95143.44;;;22.17;60.20
6435;BME280;3250;42.694;23.278;2023-09-19T07:36:47;95139.38;;;22.25;59.71
6435;BME280;3250;42.694;23.278;2023-09-19T07:39:12;95136.47;;;22.16;59.94
6435;BME280;3250;42.694;23.278;2023-09-19T07:41:38;95142.91;;;22.20;60.57
6435;BME280;3250;42.694;23.278;2023-09-19T07:44:03;95142.88;;;22.26;60.47
6435;BME280;3250;42.694;23.278;2023-09-19T07:46:29;95141.25;;;22.30;60.32
6435;BME280;3250;42.694;23.278;2023-09-19T07:48:56;95137.50;;;22.31;60.13
6435;BME280;3250;42.694;23.278;2023-09-19T07:51:22;95136.34;;;22.42;60.50
6435;BME280;3250;42.694;23.278;2023-09-19T07:53:47;95142.22;;;22.44;59.14
6435;BME280;3250;42.694;23.278;2023-09-19T07:56:13;95137.53;;;22.20;60.04
6435;BME280;3250;42.694;23.278;2023-09-19T07:58:39;95153.38;;;22.17;61.16
6435;BME280;3250;42.694;23.278;2023-09-19T08:01:10;95144.31;;;22.08;61.30
6435;BME280;3250;42.694;23.278;2023-09-19T08:03:36;95139.06;;;22.32;60.98
6435;BME280;3250;42.694;23.278;2023-09-19T08:06:09;95115.34;;;22.54;60.29
6435;BME280;3250;42.694;23.278;2023-09-19T08:08:35;95118.38;;;22.81;58.81
6435;BME280;3250;42.694;23.278;2023-09-19T08:11:05;95120.66;;;22.98;58.71
6435;BME280;3250;42.694;23.278;2023-09-19T08:13:37;95131.03;;;23.10;57.58
6435;BME280;3250;42.694;23.278;2023-09-19T08:16:03;95128.03;;;23.16;57.11
6435;BME280;3250;42.694;23.278;2023-09-19T08:18:30;95110.53;;;23.19;57.85
6435;BME280;3250;42.694;23.278;2023-09-19T08:20:55;95113.47;;;23.51;58.19
6435;BME280;3250;42.694;23.278;2023-09-19T08:23:24;95117.00;;;23.70;55.73
6435;BME280;3250;42.694;23.278;2023-09-19T08:25:49;95105.13;;;23.48;56.26
6435;BME280;3250;42.694;23.278;2023-09-19T08:28:15;95097.50;;;23.60;56.47
6435;BME280;3250;42.694;23.278;2023-09-19T08:30:45;95103.69;;;23.60;55.92
6435;BME280;3250;42.694;23.278;2023-09-19T08:33:11;95122.31;;;23.76;55.55
6435;BME280;3250;42.694;23.278;2023-09-19T08:35:36;95135.34;;;24.11;55.73
6435;BME280;3250;42.694;23.278;2023-09-19T08:38:03;95129.16;;;24.11;54.37
6435;BME280;3250;42.694;23.278;2023-09-19T08:40:33;95124.44;;;24.02;54.56
6435;BME280;3250;42.694;23.278;2023-09-19T08:43:01;95116.56;;;24.06;54.93
6435;BME280;3250;42.694;23.278;2023-09-19T08:45:28;95117.00;;;24.13;54.94
6435;BME280;3250;42.694;23.278;2023-09-19T08:48:23;95113.06;;;24.29;53.89
6435;BME280;3250;42.694;23.278;2023-09-19T08:52:04;95115.16;;;24.32;53.81
6435;BME280;3250;42.694;23.278;2023-09-19T08:53:58;95101.69;;;24.32;54.52
6435;BME280;3250;42.694;23.278;2023-09-19T08:56:29;95099.91;;;24.28;54.40
6435;BME280;3250;42.694;23.278;2023-09-19T08:59:01;95113.63;;;24.26;54.68
6435;BME280;3250;42.694;23.278;2023-09-19T09:01:28;95112.94;;;24.16;54.20
6435;BME280;3250;42.694;23.278;2023-09-19T09:03:55;95115.59;;;24.21;54.93
6435;BME280;3250;42.694;23.278;2023-09-19T09:06:22;95107.47;;;24.26;54.56
6435;BME280;3250;42.694;23.278;2023-09-19T09:08:50;95099.41;;;24.02;54.03
6435;BME280;3250;42.694;23.278;2023-09-19T09:11:17;95105.06;;;24.00;54.57
6435;BME280;3250;42.694;23.278;2023-09-19T09:13:45;95102.34;;;23.82;55.63
6435;BME280;3250;42.694;23.278;2023-09-19T09:16:11;95107.44;;;23.83;55.86
6435;BME280;3250;42.694;23.278;2023-09-19T09:18:38;95096.84;;;23.92;55.18
6435;BME280;3250;42.694;23.278;2023-09-19T09:21:03;95097.41;;;23.89;55.17
6435;BME280;3250;42.694;23.278;2023-09-19T09:23:30;95075.09;;;23.69;55.29
6435;BME280;3250;42.694;23.278;2023-09-19T09:25:58;95080.84;;;23.82;55.90
6435;BME280;3250;42.694;23.278;2023-09-19T09:28:35;95080.72;;;23.92;55.17
6435;BME280;3250;42.694;23.278;2023-09-19T09:31:02;95084.56;;;24.04;55.10
6435;BME280;3250;42.694;23.278;2023-09-19T09:33:30;95079.19;;;24.04;54.33
6435;BME280;3250;42.694;23.278;2023-09-19T09:35:58;95063.94;;;23.57;56.01
6435;BME280;3250;42.694;23.278;2023-09-19T09:38:27;95041.84;;;23.60;56.55
6435;BME280;3250;42.694;23.278;2023-09-19T09:40:56;95063.25;;;23.89;55.54
6435;BME280;3250;42.694;23.278;2023-09-19T09:43:31;95066.06;;;24.22;55.16
6435;BME280;3250;42.694;23.278;2023-09-19T09:46:13;95065.47;;;24.43;54.29
6435;BME280;3250;42.694;23.278;2023-09-19T09:48:59;95068.50;;;24.18;54.31
6435;BME280;3250;42.694;23.278;2023-09-19T09:52:04;95058.09;;;23.93;55.23
6435;BME280;3250;42.694;23.278;2023-09-19T09:55:03;95053.41;;;23.80;56.06
6435;BME280;3250;42.694;23.278;2023-09-19T09:57:33;95052.34;;;23.81;55.49
6435;BME280;3250;42.694;23.278;2023-09-19T10:00:00;95036.72;;;23.83;55.45
6435;BME280;3250;42.694;23.278;2023-09-19T10:02:44;95048.88;;;23.99;55.44
6435;BME280;3250;42.694;23.278;2023-09-19T10:05:21;95053.44;;;23.98;55.36
6435;BME280;3250;42.694;23.278;2023-09-19T10:07:51;95054.78;;;24.01;55.35
6435;BME280;3250;42.694;23.278;2023-09-19T10:10:32;95046.56;;;24.11;54.99
6435;BME280;3250;42.694;23.278;2023-09-19T10:13:19;95047.38;;;24.12;55.62
6435;BME280;3250;42.694;23.278;2023-09-19T10:15:49;95044.31;;;24.18;55.16
6435;BME280;3250;42.694;23.278;2023-09-19T10:18:22;95009.81;;;23.83;54.89
6435;BME280;3250;42.694;23.278;2023-09-19T10:20:48;95043.25;;;23.77;55.39
6435;BME280;3250;42.694;23.278;2023-09-19T10:23:18;95036.84;;;23.73;56.04
6435;BME280;3250;42.694;23.278;2023-09-19T10:25:51;95042.75;;;23.75;55.85
6435;BME280;3250;42.694;23.278;2023-09-19T10:28:18;95042.75;;;23.75;55.78
6435;BME280;3250;42.694;23.278;2023-09-19T10:30:51;95042.75;;;23.75;55.48
6435;BME280;3250;42.694;23.278;2023-09-19T10:33:18;95039.22;;;23.55;55.97
6435;BME280;3250;42.694;23.278;2023-09-19T10:35:49;95040.59;;;23.53;55.92
6435;BME280;3250;42.694;23.278;2023-09-19T10:38:22;95038.13;;;23.56;56.67
6435;BME280;3250;42.694;23.278;2023-09-19T10:40:52;95037.94;;;23.72;55.90
6435;BME280;3250;42.694;23.278;2023-09-19T10:43:20;95028.94;;;23.81;56.16
6435;BME280;3250;42.694;23.278;2023-09-19T10:45:47;95033.31;;;23.96;55.64
6435;BME280;3250;42.694;23.278;2023-09-19T10:48:18;95034.75;;;24.07;54.66
6435;BME280;3250;42.694;23.278;2023-09-19T10:53:14;95015.13;;;24.06;54.90
6435;BME280;3250;42.694;23.278;2023-09-19T10:55:49;95020.16;;;23.94;54.78
6435;BME280;3250;42.694;23.278;2023-09-19T10:58:25;95020.31;;;23.84;55.72
6435;BME280;3250;42.694;23.278;2023-09-19T11:00:58;95016.53;;;23.85;55.86
6435;BME280;3250;42.694;23.278;2023-09-19T11:03:44;95015.78;;;23.98;56.07
6435;BME280;3250;42.694;23.278;2023-09-19T11:06:19;95015.22;;;24.20;55.56
6435;BME280;3250;42.694;23.278;2023-09-19T11:09:00;95012.22;;;24.40;55.34
6435;BME280;3250;42.694;23.278;2023-09-19T11:14:29;95010.72;;;24.67;54.14
6435;BME280;3250;42.694;23.278;2023-09-19T11:30:36;94995.16;;;24.96;53.03
6435;BME280;3250;42.694;23.278;2023-09-19T11:36:13;94985.50;;;24.76;53.45
6435;BME280;3250;42.694;23.278;2023-09-19T11:43:46;94964.88;;;24.72;53.89
6435;BME280;3250;42.694;23.278;2023-09-19T11:46:12;94964.97;;;24.80;52.94
6435;BME280;3250;42.694;23.278;2023-09-19T11:48:40;94959.28;;;24.82;53.27
6435;BME280;3250;42.694;23.278;2023-09-19T11:53:57;94947.63;;;25.00;53.78
6435;BME280;3250;42.694;23.278;2023-09-19T11:56:26;94963.94;;;25.23;52.28
6435;BME280;3250;42.694;23.278;2023-09-19T11:58:57;94950.97;;;25.25;52.06
6435;BME280;3250;42.694;23.278;2023-09-19T12:01:32;94954.34;;;25.30;52.19
6435;BME280;3250;42.694;23.278;2023-09-19T12:04:00;94946.03;;;25.40;51.96
6435;BME280;3250;42.694;23.278;2023-09-19T12:06:28;94936.31;;;25.53;51.79
6435;BME280;3250;42.694;23.278;2023-09-19T12:09:02;94935.97;;;25.32;51.62
6435;BME280;3250;42.694;23.278;2023-09-19T12:11:32;94922.31;;;25.01;52.82
6435;BME280;3250;42.694;23.278;2023-09-19T12:14:01;94925.97;;;24.92;53.10
6435;BME280;3250;42.694;23.278;2023-09-19T12:16:27;94925.69;;;24.93;53.61
6435;BME280;3250;42.694;23.278;2023-09-19T12:18:56;94926.41;;;24.99;53.74
6435;BME280;3250;42.694;23.278;2023-09-19T12:24:11;94911.72;;;25.05;53.04
6435;BME280;3250;42.694;23.278;2023-09-19T12:26:42;94903.56;;;24.96;53.02
6435;BME280;3250;42.694;23.278;2023-09-19T12:29:16;94902.41;;;24.70;54.24
6435;BME280;3250;42.694;23.278;2023-09-19T12:31:54;94903.09;;;24.75;54.17
6435;BME280;3250;42.694;23.278;2023-09-19T12:34:27;94894.22;;;24.75;53.80
6435;BME280;3250;42.694;23.278;2023-09-19T12:37:12;94893.63;;;24.78;53.48
6435;BME280;3250;42.694;23.278;2023-09-19T12:39:42;94899.94;;;24.87;53.55
6435;BME280;3250;42.694;23.278;2023-09-19T12:42:10;94895.97;;;24.98;53.36
6435;BME280;3250;42.694;23.278;2023-09-19T12:44:41;94898.94;;;25.10;53.03
6435;BME280;3250;42.694;23.278;2023-09-19T12:47:09;94882.69;;;24.88;52.98
6435;BME280;3250;42.694;23.278;2023-09-19T12:49:36;94881.78;;;24.93;53.44
6435;BME280;3250;42.694;23.278;2023-09-19T12:52:01;94899.06;;;25.05;52.87
6435;BME280;3250;42.694;23.278;2023-09-19T12:54:38;94897.84;;;25.11;53.20
6435;BME280;3250;42.694;23.278;2023-09-19T12:57:04;94889.09;;;25.06;53.33
6435;BME280;3250;42.694;23.278;2023-09-19T12:59:30;94881.59;;;25.16;53.02
6435;BME280;3250;42.694;23.278;2023-09-19T13:02:04;94883.25;;;25.26;52.80
6435;BME280;3250;42.694;23.278;2023-09-19T13:04:32;94882.44;;;25.39;52.04
6435;BME280;3250;42.694;23.278;2023-09-19T13:06:59;94876.75;;;25.41;52.16
6435;BME280;3250;42.694;23.278;2023-09-19T13:09:26;94874.66;;;25.38;52.35
6435;BME280;3250;42.694;23.278;2023-09-19T13:11:59;94878.16;;;25.38;52.10
6435;BME280;3250;42.694;23.278;2023-09-19T13:14:28;94873.69;;;25.34;52.02
6435;BME280;3250;42.694;23.278;2023-09-19T13:17:00;94868.97;;;25.26;52.49
6435;BME280;3250;42.694;23.278;2023-09-19T13:22:01;94861.22;;;25.24;53.02
6435;BME280;3250;42.694;23.278;2023-09-19T13:24:27;94834.84;;;25.21;52.25
6435;BME280;3250;42.694;23.278;2023-09-19T13:26:53;94845.13;;;25.33;52.58
6435;BME280;3250;42.694;23.278;2023-09-19T13:29:19;94832.25;;;25.30;52.32
6435;BME280;3250;42.694;23.278;2023-09-19T13:31:48;94850.75;;;25.45;52.42
6435;BME280;3250;42.694;23.278;2023-09-19T13:34:15;94833.13;;;25.39;52.13
6435;BME280;3250;42.694;23.278;2023-09-19T13:36:43;94854.47;;;25.49;52.54
6435;BME280;3250;42.694;23.278;2023-09-19T13:39:08;94851.03;;;25.57;52.86
6435;BME280;3250;42.694;23.278;2023-09-19T13:41:47;94852.22;;;25.65;51.85
6435;BME280;3250;42.694;23.278;2023-09-19T13:44:12;94849.03;;;25.63;52.12
6435;BME280;3250;42.694;23.278;2023-09-19T13:46:39;94840.34;;;25.66;52.00
6435;BME280;3250;42.694;23.278;2023-09-19T13:49:05;94839.56;;;25.65;52.22
6435;BME280;3250;42.694;23.278;2023-09-19T13:51:31;94841.75;;;25.63;52.54
6435;BME280;3250;42.694;23.278;2023-09-19T13:53:57;94843.53;;;25.54;52.45
6435;BME280;3250;42.694;23.278;2023-09-19T13:56:23;94844.69;;;25.39;52.77
6435;BME280;3250;42.694;23.278;2023-09-19T13:58:49;94829.66;;;25.25;53.52
6435;BME280;3250;42.694;23.278;2023-09-19T14:01:15;94838.56;;;25.25;53.77
6435;BME280;3250;42.694;23.278;2023-09-19T14:03:41;94841.56;;;25.24;53.69
6435;BME280;3250;42.694;23.278;2023-09-19T14:06:11;94829.97;;;25.23;53.75